Time;durP1;ratioP1;P1;durP2;ratioP2;P2;SDS_P1;SDS_P2;PMS_P1;PMS_P2;Temp;Humidity;BMP_temperature;BMP_pressure;BME280_temperature;BME280_humidity;BME280_pressure;Samples;Min_cycle;Max_cycle;Signal;HPM_P1;HPM_P2
2024/01/07 00:02:09;;;;;;;0.10;0.10;;;;;;;;;;4984355;28;20088;-93
2024/01/07 00:04:35;;;;;;;0.10;0.10;;;;;;;;;;4986441;28;20081;-94
2024/01/07 00:07:01;;;;;;;0.05;0.05;;;;;;;;;;4982015;28;20165;-93
2024/01/07 00:09:27;;;;;;;0.10;0.10;;;;;;;;;;4991095;28;20122;-93
2024/01/07 00:11:53;;;;;;;0.10;0.10;;;;;;;;;;4999013;28;20098;-92
2024/01/07 00:14:19;;;;;;;0.03;0.03;;;;;;;;;;4996439;28;20035;-93
2024/01/07 00:16:45;;;;;;;0.10;0.10;;;;;;;;;;4968550;28;20285;-92
2024/01/07 00:19:11;;;;;;;0.10;0.10;;;;;;;;;;4983989;28;20122;-93
2024/01/07 00:21:37;;;;;;;0.10;0.10;;;;;;;;;;4981391;28;20028;-93
2024/01/07 00:24:03;;;;;;;0.10;0.10;;;;;;;;;;4972502;28;20027;-94
2024/01/07 00:26:29;;;;;;;0.10;0.10;;;;;;;;;;4976034;28;20031;-92
2024/01/07 00:28:55;;;;;;;0.10;0.10;;;;;;;;;;4970987;28;20091;-93
2024/01/07 00:31:20;;;;;;;0.03;0.03;;;;;;;;;;4972581;28;20031;-93
2024/01/07 00:33:46;;;;;;;0.08;0.08;;;;;;;;;;4994372;28;20036;-93
2024/01/07 00:36:12;;;;;;;0.10;0.10;;;;;;;;;;4976561;28;20030;-92
2024/01/07 00:38:38;;;;;;;0.10;0.10;;;;;;;;;;4982326;28;20043;-93
2024/01/07 00:41:04;;;;;;;0.10;0.10;;;;;;;;;;4964990;28;20073;-93
2024/01/07 00:43:30;;;;;;;0.08;0.08;;;;;;;;;;4974364;28;20054;-93
2024/01/07 00:45:56;;;;;;;0.00;0.00;;;;;;;;;;4979182;28;20022;-93
2024/01/07 00:48:22;;;;;;;0.05;0.05;;;;;;;;;;4986451;28;20055;-93
2024/01/07 00:50:48;;;;;;;0.10;0.10;;;;;;;;;;4985134;28;20088;-93
2024/01/07 00:53:14;;;;;;;0.10;0.10;;;;;;;;;;4963156;28;20053;-93
2024/01/07 00:55:40;;;;;;;0.10;0.10;;;;;;;;;;4986291;28;20036;-93
2024/01/07 00:58:06;;;;;;;0.00;0.00;;;;;;;;;;5061391;28;20030;-92
2024/01/07 01:00:32;;;;;;;0.00;0.00;;;;;;;;;;4991559;28;20035;-90
2024/01/07 01:02:58;;;;;;;0.08;0.08;;;;;;;;;;4979503;28;20028;-93
2024/01/07 01:05:24;;;;;;;0.10;0.10;;;;;;;;;;4988822;28;20019;-92
2024/01/07 01:07:51;;;;;;;0.10;0.10;;;;;;;;;;5007524;28;20026;-93
2024/01/07 01:10:18;;;;;;;0.05;0.05;;;;;;;;;;4987648;28;20030;-92
2024/01/07 01:12:44;;;;;;;0.00;0.00;;;;;;;;;;4999449;28;20045;-94
2024/01/07 01:15:10;;;;;;;0.00;0.00;;;;;;;;;;5004881;28;20017;-91
2024/01/07 01:17:36;;;;;;;0.05;0.05;;;;;;;;;;4994433;28;20036;-92
2024/01/07 01:20:02;;;;;;;0.10;0.10;;;;;;;;;;4971426;28;20461;-92
2024/01/07 01:22:28;;;;;;;0.10;0.10;;;;;;;;;;4973536;28;20092;-92
2024/01/07 01:24:55;;;;;;;0.00;0.00;;;;;;;;;;4966416;28;20433;-92
2024/01/07 01:27:21;;;;;;;0.03;0.03;;;;;;;;;;4987371;28;20027;-92
2024/01/07 01:29:47;;;;;;;0.00;0.00;;;;;;;;;;4981655;28;20478;-93
2024/01/07 01:32:13;;;;;;;0.10;0.10;;;;;;;;;;4984559;28;20030;-92
2024/01/07 01:34:40;;;;;;;0.08;0.08;;;1.70;99.90;;;;;;4996063;28;20065;-92
2024/01/07 01:37:06;;;;;;;0.00;0.00;;;;;;;;;;4977261;28;20094;-93
2024/01/07 01:39:31;;;;;;;0.00;0.00;;;1.70;99.90;;;;;;4982642;28;20071;-93
2024/01/07 01:41:58;;;;;;;0.10;0.10;;;;;;;;;;5069611;28;20029;-92
2024/01/07 01:44:24;;;;;;;0.00;0.00;;;;;;;;;;4966095;28;20039;-92
2024/01/07 01:46:50;;;;;;;0.10;0.10;;;1.60;99.90;;;;;;4962283;28;20305;-93
2024/01/07 01:49:16;;;;;;;0.10;0.10;;;1.60;99.90;;;;;;4968447;28;20405;-93
2024/01/07 01:51:42;;;;;;;0.10;0.10;;;;;;;;;;4980591;28;20096;-92
2024/01/07 01:54:08;;;;;;;0.10;0.10;;;;;;;;;;4958944;28;20082;-92
2024/01/07 01:56:34;;;;;;;0.10;0.10;;;;;;;;;;4975464;28;20500;-90
2024/01/07 01:59:00;;;;;;;0.00;0.00;;;;;;;;;;5004110;28;20403;-93
2024/01/07 02:01:26;;;;;;;0.10;0.10;;;1.60;99.90;;;;;;4981684;28;20027;-92
2024/01/07 02:03:53;;;;;;;0.10;0.10;;;;;;;;;;4961848;28;20178;-91
2024/01/07 02:06:20;;;;;;;0.00;0.00;;;1.50;99.90;;;;;;4993179;28;20027;-93
2024/01/07 02:08:46;;;;;;;0.08;0.08;;;;;;;;;;4978207;28;20064;-93
2024/01/07 02:11:19;;;;;;;0.10;0.10;;;1.50;99.90;;;;;;4976610;28;20054;-92
2024/01/07 02:13:45;;;;;;;0.10;0.10;;;;;;;;;;4984524;28;20031;-92
2024/01/07 02:16:11;;;;;;;0.00;0.00;;;;;;;;;;4979144;28;20034;-93
2024/01/07 02:18:40;;;;;;;0.00;0.00;;;1.40;99.90;;;;;;5001015;28;20037;-92
2024/01/07 02:21:07;;;;;;;0.10;0.10;;;1.40;99.90;;;;;;4979102;28;20026;-91
2024/01/07 02:23:33;;;;;;;0.10;0.10;;;;;;;;;;5005878;28;20034;-92
2024/01/07 02:25:59;;;;;;;0.10;0.10;;;;;;;;;;4976222;28;20417;-92
2024/01/07 02:28:25;;;;;;;0.10;0.10;;;;;;;;;;5065285;28;20028;-92
2024/01/07 02:30:50;;;;;;;0.10;0.10;;;;;;;;;;4980144;28;20034;-92
2024/01/07 02:33:16;;;;;;;0.00;0.00;;;;;;;;;;4978200;28;20057;-92
2024/01/07 02:35:42;;;;;;;0.10;0.10;;;;;;;;;;4987588;28;20406;-92
2024/01/07 02:38:08;;;;;;;0.08;0.08;;;;;;;;;;4980281;28;20031;-92
2024/01/07 02:40:34;;;;;;;0.10;0.10;;;;;;;;;;4998688;28;20026;-93
2024/01/07 02:43:00;;;;;;;0.00;0.00;;;;;;;;;;4997737;28;20027;-92
2024/01/07 02:45:26;;;;;;;0.00;0.00;;;;;;;;;;4976990;28;20384;-92
2024/01/07 02:47:52;;;;;;;0.00;0.00;;;;;;;;;;4969839;28;20051;-92
2024/01/07 02:50:18;;;;;;;0.10;0.10;;;;;;;;;;4996102;28;20122;-92
2024/01/07 02:52:44;;;;;;;0.03;0.03;;;;;;;;;;4982656;28;20034;-92
2024/01/07 02:55:10;;;;;;;0.08;0.08;;;;;;;;;;4983517;28;20058;-92
2024/01/07 02:57:36;;;;;;;0.10;0.10;;;;;;;;;;4974207;28;20528;-91
2024/01/07 03:00:02;;;;;;;0.10;0.10;;;;;;;;;;4978234;28;20133;-92
2024/01/07 03:02:28;;;;;;;0.03;0.03;;;;;;;;;;4986400;28;20103;-92
2024/01/07 03:04:54;;;;;;;0.10;0.10;;;;;;;;;;4979899;28;20437;-92
2024/01/07 03:07:20;;;;;;;0.00;0.00;;;;;;;;;;4990390;28;20034;-91
2024/01/07 03:09:46;;;;;;;0.00;0.00;;;;;;;;;;4977966;28;20161;-92
2024/01/07 03:12:12;;;;;;;0.00;0.00;;;;;;;;;;4987885;28;20031;-93
2024/01/07 03:14:37;;;;;;;0.10;0.10;;;1.30;99.90;;;;;;5000908;28;20509;-91
2024/01/07 03:17:03;;;;;;;0.10;0.10;;;;;;;;;;4967663;28;20034;-92
2024/01/07 03:19:29;;;;;;;0.08;0.08;;;;;;;;;;4978436;28;20090;-92
2024/01/07 03:21:54;;;;;;;0.10;0.10;;;1.30;99.90;;;;;;4975214;28;20027;-92
2024/01/07 03:24:20;;;;;;;0.00;0.00;;;;;;;;;;4984354;28;20025;-93
2024/01/07 03:26:46;;;;;;;0.10;0.10;;;;;;;;;;5019074;28;20036;-92
2024/01/07 03:29:12;;;;;;;0.10;0.10;;;;;;;;;;4965246;28;20031;-91
2024/01/07 03:31:38;;;;;;;0.10;0.10;;;;;;;;;;5013420;28;20028;-90
2024/01/07 03:34:04;;;;;;;0.00;0.00;;;;;;;;;;4982931;28;20024;-92
2024/01/07 03:36:29;;;;;;;0.10;0.10;;;1.10;99.90;;;;;;4998735;28;20045;-92
2024/01/07 03:38:55;;;;;;;0.10;0.10;;;;;;;;;;4989046;28;20030;-91
2024/01/07 03:41:21;;;;;;;0.10;0.10;;;;;;;;;;4990141;28;20023;-92
2024/01/07 03:43:47;;;;;;;0.10;0.10;;;;;;;;;;5010270;28;20478;-93
2024/01/07 03:46:14;;;;;;;0.10;0.10;;;;;;;;;;4971389;28;20028;-92
2024/01/07 03:48:43;;;;;;;0.10;0.10;;;1.00;99.90;;;;;;4975391;28;20035;-92
2024/01/07 03:51:09;;;;;;;0.10;0.10;;;;;;;;;;4989490;28;20039;-92
2024/01/07 03:53:35;;;;;;;0.10;0.10;;;;;;;;;;5011495;28;21114;-92
2024/01/07 03:56:00;;;;;;;0.10;0.10;;;;;;;;;;4971887;28;20417;-92
2024/01/07 03:58:26;;;;;;;0.10;0.10;;;;;;;;;;4981371;28;20027;-92
2024/01/07 04:00:52;;;;;;;0.10;0.10;;;;;;;;;;4987828;28;20028;-92
2024/01/07 04:03:19;;;;;;;0.10;0.10;;;;;;;;;;4970702;28;20038;-91
2024/01/07 04:05:45;;;;;;;0.10;0.10;;;;;;;;;;4987656;28;20465;-92
2024/01/07 04:08:11;;;;;;;0.10;0.10;;;;;;;;;;4991589;28;20061;-92
2024/01/07 04:10:37;;;;;;;0.10;0.10;;;;;;;;;;4993610;28;20286;-93
2024/01/07 04:13:03;;;;;;;0.10;0.10;;;;;;;;;;4983087;28;20033;-92
2024/01/07 04:15:30;;;;;;;0.10;0.10;;;;;;;;;;4996095;28;20057;-92
2024/01/07 04:17:56;;;;;;;0.10;0.10;;;;;;;;;;4986391;28;20049;-90
2024/01/07 04:20:22;;;;;;;0.20;0.20;;;;;;;;;;4988387;28;20125;-92
2024/01/07 04:22:47;;;;;;;0.10;0.10;;;;;;;;;;5007934;28;20031;-92
2024/01/07 04:25:13;;;;;;;0.10;0.10;;;;;;;;;;4987498;28;20398;-92
2024/01/07 04:27:39;;;;;;;0.10;0.10;;;;;;;;;;4992547;28;20036;-91
2024/01/07 04:30:06;;;;;;;0.10;0.10;;;0.70;99.90;;;;;;4962078;28;20039;-91
2024/01/07 04:32:32;;;;;;;0.10;0.10;;;;;;;;;;5021257;28;20490;-92
2024/01/07 04:34:58;;;;;;;0.10;0.10;;;;;;;;;;4990120;28;20072;-93
2024/01/07 04:37:24;;;;;;;0.10;0.10;;;;;;;;;;4978698;28;20026;-92
2024/01/07 04:39:50;;;;;;;0.10;0.10;;;;;;;;;;4983139;28;20032;-92
2024/01/07 04:42:18;;;;;;;0.10;0.10;;;0.80;99.90;;;;;;5004049;28;20031;-92
2024/01/07 04:44:44;;;;;;;0.10;0.10;;;;;;;;;;5069025;28;20098;-91
2024/01/07 04:47:29;;;;;;;0.10;0.10;;;0.70;99.90;;;;;;4965530;28;20485;-93
2024/01/07 04:49:55;;;;;;;0.10;0.10;;;;;;;;;;4971052;28;20031;-93
2024/01/07 04:52:22;;;;;;;0.10;0.10;;;0.70;99.90;;;;;;5001516;28;20452;-92
2024/01/07 04:54:48;;;;;;;0.10;0.10;;;;;;;;;;4992906;28;20039;-93
2024/01/07 04:57:14;;;;;;;0.13;0.13;;;;;;;;;;5006894;28;20077;-93
2024/01/07 04:59:40;;;;;;;0.10;0.10;;;0.60;99.90;;;;;;4988802;28;20031;-92
2024/01/07 05:02:06;;;;;;;0.10;0.10;;;;;;;;;;4973290;28;20093;-92
2024/01/07 05:04:32;;;;;;;0.10;0.10;;;0.80;99.90;;;;;;4982658;28;20408;-92
2024/01/07 05:06:58;;;;;;;0.10;0.10;;;;;;;;;;4997496;28;20135;-92
2024/01/07 05:09:23;;;;;;;0.10;0.10;;;;;;;;;;4979093;28;20110;-92
2024/01/07 05:11:49;;;;;;;0.10;0.10;;;0.80;99.90;;;;;;5008723;28;20039;-92
2024/01/07 05:14:15;;;;;;;0.10;0.10;;;;;;;;;;4982334;28;20482;-92
2024/01/07 05:16:41;;;;;;;0.10;0.10;;;;;;;;;;4999193;28;20028;-93
2024/01/07 05:19:07;;;;;;;0.10;0.10;;;;;;;;;;5021124;28;20038;-93
2024/01/07 05:21:32;;;;;;;0.10;0.10;;;;;;;;;;4996779;28;20018;-92
2024/01/07 05:23:58;;;;;;;0.10;0.10;;;;;;;;;;4988822;28;20026;-92
2024/01/07 05:26:24;;;;;;;0.10;0.10;;;;;;;;;;5013039;28;20037;-92
2024/01/07 05:28:50;;;;;;;0.10;0.10;;;;;;;;;;4975457;28;20045;-92
2024/01/07 05:31:17;;;;;;;0.13;0.13;;;0.50;99.90;;;;;;5000985;28;20043;-92
2024/01/07 05:33:43;;;;;;;0.10;0.10;;;;;;;;;;4986740;28;20103;-92
2024/01/07 05:36:09;;;;;;;0.10;0.10;;;;;;;;;;4977690;28;20027;-92
2024/01/07 05:38:35;;;;;;;0.10;0.10;;;;;;;;;;4994789;28;20043;-91
2024/01/07 05:41:01;;;;;;;0.10;0.10;;;;;;;;;;4989323;28;20481;-92
2024/01/07 05:43:27;;;;;;;0.10;0.10;;;;;;;;;;4952924;28;1095373;-93
2024/01/07 05:48:48;;;;;;;0.13;0.13;;;0.50;99.90;;;;;;5024920;28;20172;-92
2024/01/07 05:51:15;;;;;;;0.15;0.15;;;;;;;;;;4981572;28;20027;-92
2024/01/07 05:53:41;;;;;;;0.10;0.10;;;;;;;;;;5010309;28;20039;-94
2024/01/07 05:56:07;;;;;;;0.10;0.10;;;;;;;;;;4975328;28;20039;-92
2024/01/07 05:58:33;;;;;;;0.00;0.00;;;;;;;;;;4962593;28;20039;-92
2024/01/07 06:01:00;;;;;;;0.10;0.10;;;;;;;;;;5015231;28;20030;-92
2024/01/07 06:03:26;;;;;;;0.10;0.10;;;;;;;;;;4997140;28;20027;-92
2024/01/07 06:05:52;;;;;;;0.10;0.10;;;;;;;;;;4971859;28;20085;-92
2024/01/07 06:08:17;;;;;;;0.10;0.10;;;;;;;;;;4989623;28;20032;-92
2024/01/07 06:10:44;;;;;;;0.10;0.10;;;;;;;;;;4993612;28;20029;-92
2024/01/07 06:13:10;;;;;;;0.10;0.10;;;;;;;;;;5036356;28;20092;-93
2024/01/07 06:15:36;;;;;;;0.10;0.10;;;;;;;;;;5002790;28;20027;-93
2024/01/07 06:18:02;;;;;;;0.20;0.20;;;0.50;99.90;;;;;;4986135;28;20509;-92
2024/01/07 06:20:28;;;;;;;0.10;0.10;;;;;;;;;;5010116;28;20038;-92
2024/01/07 06:22:54;;;;;;;0.10;0.10;;;;;;;;;;4980681;28;20031;-91
2024/01/07 06:25:20;;;;;;;0.20;0.20;;;;;;;;;;4983509;28;20405;-93
2024/01/07 06:27:46;;;;;;;0.10;0.10;;;;;;;;;;4977194;28;20157;-92
2024/01/07 06:30:12;;;;;;;0.10;0.10;;;;;;;;;;4994008;28;20506;-92
2024/01/07 06:32:38;;;;;;;0.20;0.20;;;;;;;;;;4995231;28;20064;-92
2024/01/07 06:35:04;;;;;;;0.10;0.10;;;;;;;;;;4984292;28;20359;-92
2024/01/07 06:37:30;;;;;;;0.10;0.10;;;;;;;;;;4975200;28;20061;-92
2024/01/07 06:39:58;;;;;;;0.10;0.10;;;;;;;;;;4972749;28;20768;-90
2024/01/07 06:42:24;;;;;;;0.10;0.10;;;;;;;;;;4995866;28;20360;-92
2024/01/07 06:44:50;;;;;;;0.10;0.10;;;;;;;;;;5062442;28;20038;-91
2024/01/07 06:47:16;;;;;;;0.20;0.20;;;;;;;;;;4979545;28;20027;-92
2024/01/07 06:49:42;;;;;;;0.10;0.10;;;;;;;;;;4986709;28;20034;-92
2024/01/07 06:52:07;;;;;;;0.10;0.10;;;;;;;;;;4981890;28;20033;-92
2024/01/07 06:54:33;;;;;;;0.10;0.10;;;;;;;;;;5004442;28;20094;-93
2024/01/07 06:57:00;;;;;;;0.13;0.13;;;;;;;;;;4987010;28;20034;-92
2024/01/07 06:59:25;;;;;;;0.10;0.10;;;;;;;;;;5003266;28;20085;-92
2024/01/07 07:01:53;;;;;;;0.20;0.20;;;;;;;;;;4989402;28;20485;-93
2024/01/07 07:04:20;;;;;;;0.10;0.10;;;;;;;;;;4992189;28;20031;-92
2024/01/07 07:06:47;;;;;;;0.20;0.20;;;;;;;;;;5008191;28;20031;-93
2024/01/07 07:09:14;;;;;;;0.10;0.10;;;;;;;;;;4988884;28;20396;-92
2024/01/07 07:11:40;;;;;;;0.10;0.10;;;;;;;;;;4979232;28;20081;-93
2024/01/07 07:14:06;;;;;;;0.10;0.10;;;;;;;;;;4979590;28;20043;-92
2024/01/07 07:16:32;;;;;;;0.10;0.10;;;;;;;;;;5002636;28;20462;-92
2024/01/07 07:18:58;;;;;;;0.10;0.10;;;;;;;;;;4977457;28;20063;-92
2024/01/07 07:21:26;;;;;;;0.10;0.10;;;;;;;;;;4968227;28;20065;-92
2024/01/07 07:23:52;;;;;;;0.10;0.10;;;;;;;;;;4971724;28;20054;-92
2024/01/07 07:26:18;;;;;;;0.10;0.10;;;;;;;;;;4966240;28;20501;-92
2024/01/07 07:28:44;;;;;;;0.10;0.10;;;;;;;;;;5003100;28;20028;-90
2024/01/07 07:31:12;;;;;;;0.10;0.10;;;0.50;99.90;;;;;;4962737;28;20023;-91
2024/01/07 07:33:39;;;;;;;0.10;0.10;;;0.40;99.90;;;;;;4979632;28;20034;-91
2024/01/07 07:36:05;;;;;;;0.10;0.10;;;;;;;;;;5001428;28;20405;-91
2024/01/07 07:38:32;;;;;;;0.10;0.10;;;;;;;;;;4990418;28;20035;-91
2024/01/07 07:40:58;;;;;;;0.10;0.10;;;;;;;;;;4965675;28;20082;-88
2024/01/07 07:43:24;;;;;;;0.10;0.10;;;;;;;;;;5009393;28;20056;-92
2024/01/07 07:45:50;;;;;;;0.10;0.10;;;;;;;;;;5012881;28;20357;-92
2024/01/07 07:48:16;;;;;;;0.10;0.10;;;;;;;;;;5040387;28;20029;-91
2024/01/07 07:50:42;;;;;;;0.10;0.10;;;;;;;;;;4995093;28;20035;-92
2024/01/07 07:53:08;;;;;;;0.10;0.10;;;;;;;;;;5026587;28;20055;-91
2024/01/07 07:55:35;;;;;;;0.05;0.05;;;;;;;;;;5003331;28;20034;-91
2024/01/07 07:58:00;;;;;;;0.10;0.10;;;;;;;;;;5016500;28;20029;-90
2024/01/07 08:00:26;;;;;;;0.10;0.10;;;;;;;;;;4993780;28;20030;-92
2024/01/07 08:02:52;;;;;;;0.10;0.10;;;;;;;;;;4979904;28;20026;-91
2024/01/07 08:05:18;;;;;;;0.10;0.10;;;;;;;;;;4989352;28;20033;-92
2024/01/07 08:07:44;;;;;;;0.10;0.10;;;;;;;;;;4983489;28;20032;-91
2024/01/07 08:10:10;;;;;;;0.10;0.10;;;;;;;;;;4972538;28;20077;-92
2024/01/07 08:12:36;;;;;;;0.10;0.10;;;;;;;;;;4994205;28;20591;-92
2024/01/07 08:15:02;;;;;;;0.10;0.10;;;;;;;;;;4980772;28;20157;-89
2024/01/07 08:17:28;;;;;;;0.10;0.10;;;;;;;;;;4994368;28;20045;-91
2024/01/07 08:19:54;;;;;;;0.10;0.10;;;;;;;;;;5010496;28;20033;-92
2024/01/07 08:22:20;;;;;;;0.10;0.10;;;;;;;;;;4968566;28;20032;-91
2024/01/07 08:24:46;;;;;;;0.10;0.10;;;;;;;;;;4986302;28;20034;-91
2024/01/07 08:27:12;;;;;;;0.10;0.10;;;;;;;;;;4999752;28;20028;-92
2024/01/07 08:29:38;;;;;;;0.10;0.10;;;;;;;;;;5006809;28;20386;-92
2024/01/07 08:32:04;;;;;;;0.10;0.10;;;;;;;;;;5001521;28;20032;-90
2024/01/07 08:34:30;;;;;;;0.10;0.10;;;;;;;;;;4990539;28;20038;-92
2024/01/07 08:36:56;;;;;;;0.17;0.17;;;;;;;;;;5060716;28;20046;-92
2024/01/07 08:39:22;;;;;;;0.20;0.20;;;;;;;;;;4993011;28;20031;-92
2024/01/07 08:41:47;;;;;;;0.10;0.10;;;;;;;;;;5022086;28;20027;-91
2024/01/07 08:44:13;;;;;;;0.15;0.15;;;;;;;;;;4999563;28;20486;-92
2024/01/07 08:49:32;;;;;;;0.10;0.10;;;0.10;99.90;;;;;;5105417;22;20053;-92
2024/01/07 08:51:58;;;;;;;0.10;0.10;;;;;;;;;;5087676;28;20026;-92
2024/01/07 08:54:25;;;;;;;0.10;0.10;;;;;;;;;;5087684;28;20032;-91
2024/01/07 08:56:51;;;;;;;0.10;0.10;;;;;;;;;;5071088;28;20046;-92
2024/01/07 08:59:16;;;;;;;0.20;0.20;;;0.30;99.90;;;;;;5039829;28;20720;-92
2024/01/07 09:01:42;;;;;;;0.15;0.15;;;;;;;;;;5081422;28;20037;-91
2024/01/07 09:04:08;;;;;;;0.10;0.10;;;;;;;;;;5071667;28;20022;-91
2024/01/07 09:06:34;;;;;;;0.10;0.10;;;;;;;;;;5091502;28;20038;-91
2024/01/07 09:09:00;;;;;;;0.10;0.10;;;;;;;;;;5065427;28;20030;-92
2024/01/07 09:11:26;;;;;;;0.10;0.10;;;;;;;;;;5071440;28;20054;-92
2024/01/07 09:13:52;;;;;;;0.20;0.20;;;;;;;;;;5063895;28;20496;-92
2024/01/07 09:16:18;;;;;;;0.10;0.10;;;;;;;;;;5071452;28;20041;-91
2024/01/07 09:18:44;;;;;;;0.10;0.10;;;;;;;;;;5003979;28;22010;-93
2024/01/07 09:21:10;;;;;;;0.10;0.10;;;;;;;;;;5068624;28;20064;-91
2024/01/07 09:23:36;;;;;;;0.10;0.10;;;;;;;;;;5073177;28;20033;-92
2024/01/07 09:26:02;;;;;;;0.17;0.17;;;;;;;;;;5064249;28;20709;-92
2024/01/07 09:28:28;;;;;;;0.10;0.10;;;;;;;;;;5059419;28;20030;-91
2024/01/07 09:30:54;;;;;;;0.10;0.10;;;;;;;;;;5067200;28;20427;-92
2024/01/07 09:33:22;;;;;;;0.10;0.10;;;;;;;;;;5075087;28;20034;-92
2024/01/07 09:35:48;;;;;;;0.08;0.08;;;;;;;;;;5068879;28;20041;-91
2024/01/07 09:38:14;;;;;;;0.10;0.10;;;;;;;;;;5065634;28;20026;-92
2024/01/07 09:40:41;;;;;;;0.10;0.10;;;;;;;;;;5067589;28;20906;-91
2024/01/07 09:43:08;;;;;;;0.10;0.10;;;;;;;;;;5072778;28;20050;-91
2024/01/07 09:45:41;;;;;;;0.10;0.10;;;0.60;99.90;;;;;;5070161;28;20034;-91
2024/01/07 09:48:07;;;;;;;0.10;0.10;;;;;;;;;;5083695;28;20067;-91
2024/01/07 09:50:33;;;;;;;0.10;0.10;;;;;;;;;;5018756;28;20037;-91
2024/01/07 09:53:00;;;;;;;0.10;0.10;;;;;;;;;;5001386;28;20407;-91
2024/01/07 09:55:37;;;;;;;0.10;0.10;;;0.70;99.90;;;;;;5076743;28;20725;-92
2024/01/07 09:58:03;;;;;;;0.10;0.10;;;;;;;;;;5010607;28;20053;-90
2024/01/07 10:00:30;;;;;;;0.00;0.00;;;;;;;;;;5070763;28;20022;-91
2024/01/07 10:02:56;;;;;;;0.10;0.10;;;;;;;;;;5081240;28;20068;-91
2024/01/07 10:05:22;;;;;;;0.00;0.00;;;;;;;;;;5065871;28;20485;-92
2024/01/07 10:07:48;;;;;;;0.10;0.10;;;;;;;;;;5064349;28;20068;-90
2024/01/07 10:10:17;;;;;;;0.10;0.10;;;0.90;99.90;;;;;;5080142;28;20452;-93
2024/01/07 10:12:46;;;;;;;0.10;0.10;;;0.80;99.90;;;;;;5078631;28;20041;-92
2024/01/07 10:15:12;;;;;;;0.10;0.10;;;;;;;;;;5082532;28;20041;-91
2024/01/07 10:17:39;;;;;;;0.10;0.10;;;;;;;;;;5077457;28;20026;-92
2024/01/07 10:20:09;;;;;;;0.10;0.10;;;1.00;99.90;;;;;;5061946;28;20468;-90
2024/01/07 10:22:35;;;;;;;0.10;0.10;;;;;;;;;;5003058;28;20040;-91
2024/01/07 10:25:01;;;;;;;0.10;0.10;;;;;;;;;;5007385;28;20030;-92
2024/01/07 10:27:27;;;;;;;0.10;0.10;;;;;;;;;;5073253;28;20034;-92
2024/01/07 10:29:55;;;;;;;0.10;0.10;;;;;;;;;;5074542;28;20033;-92
2024/01/07 10:32:21;;;;;;;0.10;0.10;;;;;;;;;;5076809;28;20026;-93
2024/01/07 10:34:49;;;;;;;0.10;0.10;;;0.90;99.90;;;;;;5069884;28;20086;-92
2024/01/07 10:37:15;;;;;;;0.10;0.10;;;;;;;;;;5083828;28;20044;-90
2024/01/07 10:39:41;;;;;;;0.10;0.10;;;1.10;99.90;;;;;;5099581;28;20543;-92
2024/01/07 10:42:08;;;;;;;0.10;0.10;;;1.00;99.90;;;;;;5082611;28;20019;-92
2024/01/07 10:44:35;;;;;;;0.10;0.10;;;;;;;;;;5088627;28;20034;-93
2024/01/07 10:47:06;;;;;;;0.10;0.10;;;1.10;99.90;;;;;;5080531;28;20059;-93
2024/01/07 10:49:32;;;;;;;0.10;0.10;;;;;;;;;;5087684;28;20038;-93
2024/01/07 10:52:08;;;;;;;0.00;0.00;;;1.20;99.90;;;;;;5099870;28;20035;-93
2024/01/07 10:54:37;;;;;;;0.05;0.05;;;1.20;99.90;;;;;;5081882;28;20079;-91
2024/01/07 10:57:24;;;;;;;0.10;0.10;;;1.30;99.90;;;;;;5090906;28;20400;-92
2024/01/07 10:59:52;;;;;;;0.10;0.10;;;1.20;99.90;;;;;;5070576;28;20052;-92
2024/01/07 11:02:18;;;;;;;0.10;0.10;;;;;;;;;;5079030;28;20050;-89
2024/01/07 11:05:07;;;;;;;0.00;0.00;;;1.20;99.90;;;;;;5071429;28;20017;-91
2024/01/07 11:07:39;;;;;;;0.10;0.10;;;1.30;99.90;;;;;;5096603;28;20019;-92
2024/01/07 11:10:13;;;;;;;0.10;0.10;;;1.40;99.90;;;;;;5076022;28;20079;-92
2024/01/07 11:12:39;;;;;;;0.10;0.10;;;;;;;;;;5083015;28;20442;-91
2024/01/07 11:15:05;;;;;;;0.00;0.00;;;;;;;;;;5071815;28;20060;-92
2024/01/07 11:17:45;;;;;;;0.10;0.10;;;1.40;99.90;;;;;;5065748;28;20086;-92
2024/01/07 11:20:20;;;;;;;0.03;0.03;;;1.40;99.90;;;;;;5073843;28;20040;-92
2024/01/07 11:22:46;;;;;;;0.08;0.08;;;;;;;;;;5078334;28;20235;-92
2024/01/07 11:25:30;;;;;;;0.10;0.10;;;1.20;99.90;;;;;;5066996;28;20053;-92
2024/01/07 11:28:00;;;;;;;0.03;0.03;;;1.30;99.90;;;;;;5071141;28;20032;-92
2024/01/07 11:30:27;;;;;;;0.10;0.10;;;1.30;99.90;;;;;;5074345;28;20034;-92
2024/01/07 11:32:59;;;;;;;0.10;0.10;;;1.30;99.90;;;;;;5070750;28;20034;-93
2024/01/07 11:35:59;;;;;;;0.00;0.00;;;1.30;99.90;;;;;;5073243;28;20026;-91
2024/01/07 11:38:25;;;;;;;0.00;0.00;;;;;;;;;;5005372;28;20040;-92
2024/01/07 11:40:51;;;;;;;0.03;0.03;;;;;;;;;;5066829;28;20038;-91
2024/01/07 11:43:17;;;;;;;0.10;0.10;;;;;;;;;;5070279;28;20038;-91
2024/01/07 11:45:43;;;;;;;0.10;0.10;;;;;;;;;;5076042;28;20061;-91
2024/01/07 11:48:09;;;;;;;0.00;0.00;;;;;;;;;;5012647;28;20033;-92
2024/01/07 11:50:35;;;;;;;0.00;0.00;;;1.30;99.90;;;;;;5063948;28;20023;-91
2024/01/07 11:53:01;;;;;;;0.10;0.10;;;;;;;;;;5077159;28;20022;-92
2024/01/07 11:55:29;;;;;;;0.00;0.00;;;1.40;99.90;;;;;;5007905;28;20037;-92
2024/01/07 11:57:55;;;;;;;0.00;0.00;;;1.40;99.90;;;;;;5012385;28;20014;-91
2024/01/07 12:00:21;;;;;;;0.10;0.10;;;1.40;99.90;;;;;;5073049;28;20381;-91
2024/01/07 12:02:47;;;;;;;0.00;0.00;;;;;;;;;;5074127;28;20032;-92
2024/01/07 12:05:15;;;;;;;0.00;0.00;;;;;;;;;;5065852;28;20113;-91
2024/01/07 12:07:42;;;;;;;0.00;0.00;;;;;;;;;;5071495;28;20042;-91
2024/01/07 12:10:11;;;;;;;0.08;0.08;;;1.50;99.90;;;;;;5005451;28;20064;-92
2024/01/07 12:12:37;;;;;;;0.10;0.10;;;;;;;;;;5078574;28;20041;-92
2024/01/07 12:15:04;;;;;;;0.10;0.10;;;;;;;;;;5076148;28;20116;-91
2024/01/07 12:17:30;;;;;;;0.05;0.05;;;;;;;;;;5082355;28;20501;-91
2024/01/07 12:19:56;;;;;;;0.00;0.00;;;1.60;99.90;;;;;;5068030;28;20045;-91
2024/01/07 12:22:22;;;;;;;0.00;0.00;;;;;;;;;;5079638;28;20399;-92
2024/01/07 12:25:00;;;;;;;0.10;0.10;;;1.60;99.90;;;;;;5014380;28;20102;-92
2024/01/07 12:27:26;;;;;;;0.10;0.10;;;;;;;;;;5072806;28;20027;-88
2024/01/07 12:29:58;;;;;;;0.00;0.00;;;1.60;99.90;;;;;;5070628;28;20035;-92
2024/01/07 12:32:30;;;;;;;0.00;0.00;;;1.60;99.90;;;;;;5011918;28;20034;-92
2024/01/07 12:35:00;;;;;;;0.00;0.00;;;1.60;99.90;;;;;;5069369;28;20057;-92
2024/01/07 12:37:27;;;;;;;0.10;0.10;;;;;;;;;;5020904;28;20033;-92
2024/01/07 12:39:53;;;;;;;0.10;0.10;;;;;;;;;;5066666;28;20022;-92
2024/01/07 12:42:21;;;;;;;0.00;0.00;;;;;;;;;;5074716;28;20094;-91
2024/01/07 12:44:48;;;;;;;0.00;0.00;;;1.70;99.90;;;;;;5016494;28;20108;-92
2024/01/07 12:47:14;;;;;;;0.00;0.00;;;;;;;;;;5019907;28;20594;-93
2024/01/07 12:49:40;;;;;;;0.10;0.10;;;;;;;;;;5090516;28;20168;-93
2024/01/07 12:52:06;;;;;;;0.00;0.00;;;;;;;;;;5066075;28;20030;-93
2024/01/07 12:54:32;;;;;;;0.00;0.00;;;;;;;;;;5075830;28;20389;-92
2024/01/07 12:56:58;;;;;;;0.00;0.00;;;;;;;;;;5069218;28;20051;-92
2024/01/07 12:59:23;;;;;;;0.00;0.00;;;1.80;99.90;;;;;;5069949;28;20030;-92
2024/01/07 13:01:50;;;;;;;0.00;0.00;;;;;;;;;;5071321;28;20055;-93
2024/01/07 13:04:16;;;;;;;0.08;0.08;;;;;;;;;;5062375;28;20026;-92
2024/01/07 13:06:42;;;;;;;0.05;0.05;;;;;;;;;;5068825;28;20036;-93
2024/01/07 13:09:09;;;;;;;0.00;0.00;;;;;;;;;;5014564;28;20065;-92
2024/01/07 13:11:35;;;;;;;0.00;0.00;;;;;;;;;;5063823;28;20034;-92
2024/01/07 13:14:01;;;;;;;0.00;0.00;;;;;;;;;;5012061;28;20029;-92
2024/01/07 13:16:27;;;;;;;0.00;0.00;;;;;;;;;;5084451;28;20035;-92
2024/01/07 13:18:54;;;;;;;0.03;0.03;;;;;;;;;;5076402;28;20069;-92
2024/01/07 13:21:20;;;;;;;0.10;0.10;;;;;;;;;;5070568;28;20033;-92
2024/01/07 13:23:47;;;;;;;0.00;0.00;;;;;;;;;;5073085;28;20409;-93
2024/01/07 13:26:13;;;;;;;0.10;0.10;;;;;;;;;;5070144;28;20120;-92
2024/01/07 13:28:39;;;;;;;0.10;0.10;;;;;;;;;;5070402;28;20456;-92
2024/01/07 13:31:06;;;;;;;0.10;0.10;;;;;;;;;;5065150;28;20022;-92
2024/01/07 13:33:32;;;;;;;0.00;0.00;;;;;;;;;;5071825;28;20027;-92
2024/01/07 13:35:58;;;;;;;0.00;0.00;;;;;;;;;;5072401;28;20026;-92
2024/01/07 13:38:24;;;;;;;0.03;0.03;;;;;;;;;;5074655;28;20103;-92
2024/01/07 13:40:50;;;;;;;0.00;0.00;;;;;;;;;;5073989;28;20078;-93
2024/01/07 13:43:16;;;;;;;0.05;0.05;;;;;;;;;;5068301;28;20122;-92
2024/01/07 13:45:42;;;;;;;0.10;0.10;;;;;;;;;;5070111;28;20539;-92
2024/01/07 13:48:09;;;;;;;0.10;0.10;;;1.50;99.90;;;;;;5061595;28;20062;-93
2024/01/07 13:50:35;;;;;;;0.10;0.10;;;;;;;;;;5020001;28;20022;-90
2024/01/07 13:53:01;;;;;;;0.10;0.10;;;1.40;99.90;;;;;;5084457;28;20045;-93
2024/01/07 13:55:27;;;;;;;0.00;0.00;;;;;;;;;;5078753;28;20033;-93
2024/01/07 13:57:53;;;;;;;0.10;0.10;;;;;;;;;;5017345;28;20031;-93
2024/01/07 14:00:20;;;;;;;0.10;0.10;;;;;;;;;;5071437;28;20030;-93
2024/01/07 14:02:46;;;;;;;0.00;0.00;;;;;;;;;;5066007;28;20022;-92
2024/01/07 14:05:12;;;;;;;0.00;0.00;;;1.50;99.90;;;;;;5067002;28;20037;-92
2024/01/07 14:07:38;;;;;;;0.10;0.10;;;;;;;;;;5069765;28;20024;-92
2024/01/07 14:10:05;;;;;;;0.10;0.10;;;1.40;99.90;;;;;;5069803;28;20030;-92
2024/01/07 14:12:31;;;;;;;0.00;0.00;;;;;;;;;;5065168;28;20038;-92
2024/01/07 14:14:58;;;;;;;0.00;0.00;;;;;;;;;;5075450;28;20037;-92
2024/01/07 14:17:24;;;;;;;0.10;0.10;;;;;;;;;;5072910;28;20064;-93
2024/01/07 14:19:52;;;;;;;0.10;0.10;;;;;;;;;;5015993;28;20034;-92
2024/01/07 14:22:18;;;;;;;0.00;0.00;;;;;;;;;;5019361;28;20060;-92
2024/01/07 14:24:44;;;;;;;0.10;0.10;;;;;;;;;;5068308;28;20062;-91